Time;durP1;ratioP1;P1;durP2;ratioP2;P2;SDS_P1;SDS_P2;PMS_P1;PMS_P2;Temp;Humidity;BMP_temperature;BMP_pressure;BME280_temperature;BME280_humidity;BME280_pressure;Samples;Min_cycle;Max_cycle;Signal;HPM_P1;HPM_P2
2021/09/18 00:00:21;;;;;;;17.52;9.35;;;15.90;82.80;;;;;;4957082;28;20066;-61
2021/09/18 00:02:48;;;;;;;13.07;9.15;;;15.90;82.80;;;;;;4957452;28;20155;-59
2021/09/18 00:05:15;;;;;;;16.25;10.55;;;15.90;82.80;;;;;;4939805;28;20078;-59
2021/09/18 00:07:41;;;;;;;14.02;8.95;;;15.90;82.80;;;;;;4941009;29;20656;-59
2021/09/18 00:10:09;;;;;;;13.75;10.13;;;15.90;82.70;;;;;;4951621;28;20047;-60
2021/09/18 00:12:36;;;;;;;14.30;10.23;;;15.90;82.80;;;;;;4950991;29;20074;-60
2021/09/18 00:15:04;;;;;;;13.10;10.15;;;15.80;82.80;;;;;;4936026;28;20075;-59
2021/09/18 00:17:31;;;;;;;15.95;11.15;;;15.90;82.90;;;;;;4969734;28;20446;-60
2021/09/18 00:19:58;;;;;;;13.77;10.43;;;15.80;83.00;;;;;;4970917;28;20096;-59
2021/09/18 00:22:25;;;;;;;15.88;9.50;;;15.70;83.00;;;;;;4953487;28;20043;-58
2021/09/18 00:24:52;;;;;;;16.25;10.35;;;15.60;83.00;;;;;;4970630;28;20051;-60
2021/09/18 00:27:19;;;;;;;12.75;8.52;;;15.60;83.20;;;;;;4967673;28;20047;-58
2021/09/18 00:29:46;;;;;;;16.67;9.50;;;15.60;83.30;;;;;;4951959;29;20094;-59
2021/09/18 00:32:13;;;;;;;16.13;9.50;;;15.60;83.00;;;;;;4956240;28;20051;-58
2021/09/18 00:34:39;;;;;;;12.65;8.57;;;15.60;83.00;;;;;;4951331;29;20082;-59
2021/09/18 00:37:06;;;;;;;11.95;8.63;;;15.50;82.90;;;;;;4955659;28;20087;-60
2021/09/18 00:39:33;;;;;;;15.23;9.48;;;15.50;83.10;;;;;;4968500;28;20493;-59
2021/09/18 00:42:00;;;;;;;16.63;8.63;;;15.40;83.00;;;;;;4953049;28;20067;-60
2021/09/18 00:44:27;;;;;;;14.68;8.07;;;15.40;83.20;;;;;;4970797;28;20086;-59
2021/09/18 00:46:54;;;;;;;15.45;8.70;;;15.40;83.20;;;;;;4948952;28;20066;-59
2021/09/18 00:49:21;;;;;;;13.88;8.82;;;15.40;83.10;;;;;;4957375;28;20051;-59
2021/09/18 00:51:49;;;;;;;12.02;8.50;;;15.40;83.10;;;;;;4959282;28;20098;-58
2021/09/18 00:54:15;;;;;;;14.02;8.32;;;15.30;83.00;;;;;;4970757;28;20050;-59
2021/09/18 00:56:42;;;;;;;13.85;7.95;;;15.30;82.80;;;;;;4970202;28;20622;-59
2021/09/18 00:59:09;;;;;;;12.00;8.90;;;15.20;82.80;;;;;;4937153;28;20079;-60
2021/09/18 01:01:36;;;;;;;19.95;10.90;;;15.20;83.20;;;;;;4967897;28;20054;-60
2021/09/18 01:04:04;;;;;;;14.55;10.00;;;15.20;83.30;;;;;;4954001;28;20109;-60
2021/09/18 01:06:31;;;;;;;15.45;9.32;;;15.20;83.30;;;;;;4952576;28;20443;-59
2021/09/18 01:08:58;;;;;;;12.82;9.18;;;15.20;83.80;;;;;;4970186;28;20134;-59
2021/09/18 01:11:25;;;;;;;16.17;9.23;;;15.10;83.20;;;;;;4968744;28;20423;-59
2021/09/18 01:13:52;;;;;;;12.13;8.70;;;15.10;83.50;;;;;;4967188;28;20058;-59
2021/09/18 01:16:20;;;;;;;12.82;9.85;;;15.10;83.20;;;;;;4974411;28;20046;-59
2021/09/18 01:18:47;;;;;;;27.10;11.32;;;15.10;83.40;;;;;;4961206;28;20062;-59
2021/09/18 01:21:14;;;;;;;17.63;10.68;;;15.10;83.50;;;;;;4950252;29;20086;-57
2021/09/18 01:23:41;;;;;;;17.17;11.77;;;15.10;83.70;;;;;;4948887;28;20054;-59
2021/09/18 01:26:09;;;;;;;18.73;12.05;;;15.10;83.70;;;;;;4969854;28;20078;-58
2021/09/18 01:28:39;;;;;;;22.02;12.45;;;15.00;83.80;;;;;;4961183;28;20058;-59
2021/09/18 01:31:06;;;;;;;18.52;11.95;;;15.00;83.90;;;;;;4966184;28;20130;-58
2021/09/18 01:33:33;;;;;;;19.25;11.40;;;15.10;84.00;;;;;;4964743;28;20079;-60
2021/09/18 01:36:00;;;;;;;20.25;11.80;;;15.10;84.20;;;;;;4955528;28;20408;-57
2021/09/18 01:38:27;;;;;;;16.92;10.18;;;15.20;84.30;;;;;;4957381;28;20058;-58
2021/09/18 01:40:54;;;;;;;20.60;12.73;;;15.20;84.30;;;;;;4958032;28;20051;-59
2021/09/18 01:43:21;;;;;;;14.77;9.77;;;15.30;84.50;;;;;;4952060;28;20057;-60
2021/09/18 01:45:48;;;;;;;18.65;11.30;;;15.20;84.60;;;;;;4968421;28;20501;-59
2021/09/18 01:48:15;;;;;;;18.42;11.60;;;15.20;84.60;;;;;;4980570;28;20549;-59
2021/09/18 01:50:47;;;;;;;24.10;12.40;;;15.30;84.60;;;;;;4960830;28;20055;-59
2021/09/18 01:53:16;;;;;;;14.60;11.25;;;15.40;84.60;;;;;;4935067;28;20502;-59
2021/09/18 01:55:43;;;;;;;14.65;11.00;;;15.40;84.60;;;;;;4966229;28;20053;-59
2021/09/18 01:58:10;;;;;;;17.38;10.10;;;15.40;84.30;;;;;;4968119;28;20051;-59
2021/09/18 02:00:59;;;;;;;15.50;10.68;;;15.40;84.20;;;;;;4946927;28;20065;-59
2021/09/18 02:03:26;;;;;;;17.30;10.82;;;15.40;85.90;;;;;;4951170;28;20054;-60
2021/09/18 02:05:53;;;;;;;19.20;12.27;;;15.30;84.50;;;;;;4968591;28;20054;-60
2021/09/18 02:08:21;;;;;;;16.25;11.02;;;15.30;84.70;;;;;;4968893;28;20058;-57
2021/09/18 02:10:49;;;;;;;17.17;12.57;;;15.40;84.80;;;;;;4954733;28;20043;-59
2021/09/18 02:13:16;;;;;;;18.73;12.25;;;15.50;84.70;;;;;;4951911;28;20105;-58
2021/09/18 02:15:43;;;;;;;23.30;13.00;;;15.40;84.50;;;;;;4955897;28;20138;-59
2021/09/18 02:18:09;;;;;;;15.60;12.60;;;15.40;84.40;;;;;;4968523;28;20101;-60
2021/09/18 02:20:37;;;;;;;19.60;13.90;;;15.50;84.50;;;;;;4957220;28;20051;-59
2021/09/18 02:23:04;;;;;;;19.88;12.25;;;15.50;84.60;;;;;;4966033;28;20521;-59
2021/09/18 02:25:31;;;;;;;15.38;11.05;;;15.50;84.70;;;;;;4959210;28;20055;-61
2021/09/18 02:27:58;;;;;;;16.40;11.40;;;15.50;84.80;;;;;;4964980;28;20082;-59
2021/09/18 02:30:27;;;;;;;18.27;12.45;;;15.60;84.80;;;;;;4961518;28;20047;-58
2021/09/18 02:32:55;;;;;;;14.07;11.35;;;15.60;84.80;;;;;;4962886;28;20050;-58
2021/09/18 02:35:23;;;;;;;18.08;11.02;;;15.60;84.70;;;;;;4946679;28;20078;-58
2021/09/18 02:37:52;;;;;;;18.05;11.63;;;15.60;84.60;;;;;;4951135;28;20054;-58
2021/09/18 02:40:19;;;;;;;18.55;12.27;;;15.60;84.60;;;;;;4964414;28;20386;-59
2021/09/18 02:42:48;;;;;;;16.77;12.05;;;15.60;84.80;;;;;;4968228;28;20232;-58
2021/09/18 02:45:15;;;;;;;26.10;13.57;;;15.60;84.90;;;;;;4933900;28;20059;-58
2021/09/18 02:47:42;;;;;;;18.80;13.82;;;15.60;84.80;;;;;;4967374;28;20101;-58
2021/09/18 02:50:10;;;;;;;22.27;13.98;;;15.60;84.90;;;;;;4968113;28;20113;-58
2021/09/18 02:52:37;;;;;;;22.65;14.32;;;15.60;85.10;;;;;;4968244;28;20043;-59
2021/09/18 02:55:05;;;;;;;19.73;14.07;;;15.60;85.10;;;;;;4967549;28;20589;-58
2021/09/18 02:57:32;;;;;;;22.60;14.05;;;15.70;85.00;;;;;;4940023;28;20183;-59
2021/09/18 02:59:59;;;;;;;24.92;15.00;;;15.80;85.10;;;;;;4968536;28;20055;-59
2021/09/18 03:02:26;;;;;;;20.60;15.15;;;15.80;85.00;;;;;;4955323;28;20047;-60
2021/09/18 03:04:53;;;;;;;20.58;12.85;;;15.80;84.90;;;;;;4967956;28;20493;-58
2021/09/18 03:07:20;;;;;;;17.00;11.88;;;15.80;85.40;;;;;;4955892;28;20059;-58
2021/09/18 03:09:47;;;;;;;14.27;10.30;;;15.80;84.60;;;;;;4968279;28;20506;-59
2021/09/18 03:12:13;;;;;;;19.35;11.90;;;15.80;84.50;;;;;;4957740;28;20051;-58
2021/09/18 03:14:40;;;;;;;17.15;12.70;;;15.80;84.60;;;;;;4965491;28;20046;-58
2021/09/18 03:17:07;;;;;;;26.67;14.68;;;15.80;84.90;;;;;;4942803;29;20091;-59
2021/09/18 03:19:34;;;;;;;20.23;13.93;;;15.80;85.00;;;;;;4963151;28;20099;-59
2021/09/18 03:22:01;;;;;;;21.58;13.73;;;15.80;85.50;;;;;;4962193;28;20051;-59
2021/09/18 03:24:28;;;;;;;20.85;13.70;;;15.70;84.90;;;;;;4948886;29;20051;-60
2021/09/18 03:26:55;;;;;;;17.08;13.05;;;15.70;85.00;;;;;;4934091;28;20808;-60
2021/09/18 03:29:22;;;;;;;20.33;13.90;;;15.60;84.90;;;;;;4957604;28;20146;-59
2021/09/18 03:31:49;;;;;;;20.98;14.20;;;15.60;85.00;;;;;;4949807;28;20091;-59
2021/09/18 03:34:16;;;;;;;22.05;15.05;;;15.60;85.10;;;;;;4940226;29;20051;-59
2021/09/18 03:36:43;;;;;;;29.15;16.67;;;15.70;85.40;;;;;;4950144;28;20138;-58
2021/09/18 03:39:09;;;;;;;29.92;19.80;;;15.70;85.50;;;;;;4956877;28;20050;-59
2021/09/18 03:41:36;;;;;;;25.92;18.40;;;15.70;85.70;;;;;;4967300;28;20054;-59
2021/09/18 03:44:03;;;;;;;28.88;18.90;;;15.70;85.60;;;;;;4955944;28;20081;-58
2021/09/18 03:46:30;;;;;;;28.73;18.08;;;15.80;85.60;;;;;;4967981;28;20054;-58
2021/09/18 03:48:57;;;;;;;30.30;19.02;;;15.80;85.60;;;;;;4960986;28;20743;-61
2021/09/18 03:51:24;;;;;;;28.88;17.77;;;15.80;85.50;;;;;;4948629;29;20047;-58
2021/09/18 03:53:50;;;;;;;27.52;18.55;;;15.80;85.50;;;;;;4952083;28;20052;-58
2021/09/18 03:56:17;;;;;;;34.50;19.33;;;15.80;85.60;;;;;;4967855;28;20141;-59
2021/09/18 03:58:44;;;;;;;30.25;20.15;;;15.70;85.70;;;;;;4962854;28;20047;-59
2021/09/18 04:01:11;;;;;;;29.25;17.10;;;15.70;85.80;;;;;;4959011;28;20245;-59
2021/09/18 04:03:38;;;;;;;24.85;18.33;;;15.70;85.70;;;;;;4971133;28;20064;-58
2021/09/18 04:06:05;;;;;;;29.05;20.45;;;15.70;85.60;;;;;;4956676;28;20451;-58
2021/09/18 04:08:32;;;;;;;27.13;18.88;;;15.70;85.70;;;;;;4954384;28;20062;-59
2021/09/18 04:10:59;;;;;;;31.38;20.38;;;15.70;85.70;;;;;;4965088;28;20061;-59
2021/09/18 04:13:26;;;;;;;31.02;19.58;;;15.70;85.80;;;;;;4967435;28;20525;-58
2021/09/18 04:15:52;;;;;;;35.85;21.08;;;15.60;85.90;;;;;;4961888;28;20063;-59
2021/09/18 04:18:19;;;;;;;35.33;21.33;;;15.60;85.90;;;;;;4967111;28;20118;-59
2021/09/18 04:20:46;;;;;;;31.85;22.02;;;15.60;86.10;;;;;;4962565;28;20051;-58
2021/09/18 04:23:13;;;;;;;35.30;20.90;;;15.60;86.20;;;;;;4950771;29;20075;-60
2021/09/18 04:25:40;;;;;;;33.17;21.83;;;15.60;86.20;;;;;;4951831;29;20071;-60
2021/09/18 04:28:07;;;;;;;33.88;21.30;;;15.50;86.20;;;;;;4951202;28;20509;-60
2021/09/18 04:30:34;;;;;;;37.67;24.08;;;15.50;86.20;;;;;;4951128;29;20065;-60
2021/09/18 04:33:01;;;;;;;40.30;24.17;;;15.50;86.30;;;;;;4950941;29;20107;-59
2021/09/18 04:35:27;;;;;;;37.60;22.63;;;15.50;86.50;;;;;;4950369;28;20047;-58
2021/09/18 04:37:54;;;;;;;37.83;24.10;;;15.60;86.60;;;;;;4951383;29;20051;-58
2021/09/18 04:40:21;;;;;;;38.90;24.17;;;15.50;86.80;;;;;;4950633;29;20051;-59
2021/09/18 04:42:48;;;;;;;36.75;22.85;;;15.50;86.80;;;;;;4951019;29;20043;-61
2021/09/18 04:45:15;;;;;;;42.47;24.92;;;15.50;86.80;;;;;;4950596;29;20047;-60
2021/09/18 04:47:42;;;;;;;38.95;23.85;;;15.50;86.80;;;;;;4951477;29;20047;-60
2021/09/18 04:50:09;;;;;;;38.88;23.92;;;15.60;86.80;;;;;;4950598;29;20110;-59
2021/09/18 04:52:35;;;;;;;36.97;23.90;;;15.50;86.70;;;;;;4951214;29;20047;-59
2021/09/18 04:55:03;;;;;;;40.30;23.80;;;15.50;86.70;;;;;;4950005;29;20406;-59
2021/09/18 04:57:30;;;;;;;37.10;23.35;;;15.50;86.60;;;;;;4951330;28;20080;-60
2021/09/18 04:59:57;;;;;;;42.67;25.50;;;15.50;86.80;;;;;;4950189;29;20130;-60
2021/09/18 05:02:24;;;;;;;37.53;23.73;;;15.50;86.90;;;;;;4929287;29;20058;-58
2021/09/18 05:04:51;;;;;;;37.80;24.83;;;15.50;87.00;;;;;;4933831;29;20474;-59
2021/09/18 05:07:18;;;;;;;36.13;21.73;;;15.50;87.00;;;;;;4950988;28;20054;-59
2021/09/18 05:09:45;;;;;;;38.95;24.15;;;15.50;86.90;;;;;;4950197;28;20051;-60
2021/09/18 05:12:11;;;;;;;42.85;25.52;;;15.50;86.90;;;;;;4950399;29;20558;-58
2021/09/18 05:14:38;;;;;;;42.13;25.08;;;15.50;86.90;;;;;;4950945;29;20073;-59
2021/09/18 05:17:05;;;;;;;35.63;23.13;;;15.50;87.10;;;;;;4950503;28;20047;-59
2021/09/18 05:19:32;;;;;;;35.97;22.48;;;15.50;87.10;;;;;;4950812;29;20066;-58
2021/09/18 05:21:59;;;;;;;37.88;22.42;;;15.50;86.90;;;;;;4950387;28;20079;-60
2021/09/18 05:24:27;;;;;;;38.25;23.60;;;15.50;86.80;;;;;;4950380;29;20051;-59
2021/09/18 05:26:54;;;;;;;30.17;20.65;;;15.40;86.50;;;;;;4933226;29;20567;-58
2021/09/18 05:29:21;;;;;;;36.20;22.70;;;15.40;86.50;;;;;;4950687;29;20130;-60
2021/09/18 05:31:48;;;;;;;39.75;22.63;;;15.40;86.60;;;;;;4949135;29;20079;-59
2021/09/18 05:34:14;;;;;;;38.78;24.88;;;15.40;86.80;;;;;;4950146;29;20047;-59
2021/09/18 05:36:41;;;;;;;44.08;23.83;;;15.40;87.00;;;;;;4949529;28;20687;-60
2021/09/18 05:39:08;;;;;;;40.40;24.92;;;15.40;87.00;;;;;;4950022;29;20143;-59
2021/09/18 05:41:35;;;;;;;36.63;23.65;;;15.30;87.10;;;;;;4949869;29;20069;-58
2021/09/18 05:44:02;;;;;;;40.90;24.15;;;15.30;87.10;;;;;;4949683;28;20477;-58
2021/09/18 05:46:29;;;;;;;44.05;24.95;;;15.40;87.10;;;;;;4934480;29;20102;-60
2021/09/18 05:48:56;;;;;;;41.65;27.02;;;15.30;87.20;;;;;;4932571;29;20044;-59
2021/09/18 05:51:22;;;;;;;45.25;24.67;;;15.30;87.40;;;;;;4949312;28;20047;-59
2021/09/18 05:53:49;;;;;;;36.92;23.20;;;15.40;87.60;;;;;;4949646;28;20126;-61
2021/09/18 05:56:16;;;;;;;36.50;23.45;;;15.30;87.40;;;;;;4948928;29;20055;-59
2021/09/18 05:59:02;;;;;;;35.90;23.10;;;15.30;87.40;;;;;;4949547;28;20167;-60
2021/09/18 06:01:29;;;;;;;60.95;25.98;;;15.30;87.50;;;;;;4949079;29;20063;-60
2021/09/18 06:03:56;;;;;;;47.10;24.98;;;15.30;87.70;;;;;;4949378;29;20043;-60
2021/09/18 06:06:23;;;;;;;47.60;24.33;;;15.30;87.60;;;;;;4949604;29;20117;-59
2021/09/18 06:08:50;;;;;;;37.25;24.42;;;15.40;87.60;;;;;;4948362;29;20039;-59
2021/09/18 06:11:17;;;;;;;41.63;23.52;;;15.40;88.20;;;;;;4949608;29;20051;-59
2021/09/18 06:13:44;;;;;;;32.17;20.90;;;15.40;87.60;;;;;;4948093;29;20055;-59
2021/09/18 06:16:12;;;;;;;37.63;22.15;;;15.40;87.60;;;;;;4932382;29;20043;-59
2021/09/18 06:18:40;;;;;;;57.40;23.02;;;15.40;87.70;;;;;;4948087;29;20142;-60
2021/09/18 06:21:07;;;;;;;32.72;20.80;;;15.40;88.30;;;;;;4951804;28;20051;-60
2021/09/18 06:23:37;;;;;;;32.92;21.23;;;15.40;87.70;;;;;;4950468;28;20109;-58
2021/09/18 06:26:04;;;;;;;40.30;22.33;;;15.40;87.60;;;;;;4968621;28;20592;-60
2021/09/18 06:28:31;;;;;;;36.33;21.35;;;15.50;87.70;;;;;;4968430;28;20525;-57
2021/09/18 06:30:58;;;;;;;29.73;20.40;;;15.50;87.70;;;;;;4967913;28;20047;-57
2021/09/18 06:33:25;;;;;;;39.10;21.58;;;15.50;87.70;;;;;;4968088;28;20057;-57
2021/09/18 06:35:51;;;;;;;37.95;22.05;;;15.60;88.00;;;;;;4968489;28;20111;-58
2021/09/18 06:38:21;;;;;;;34.63;21.52;;;15.70;88.10;;;;;;4968206;28;20043;-58
2021/09/18 06:40:53;;;;;;;32.10;21.50;;;15.70;88.10;;;;;;4968534;28;20051;-59
2021/09/18 06:43:20;;;;;;;30.80;20.75;;;15.80;88.40;;;;;;4967895;28;20535;-58
2021/09/18 06:45:48;;;;;;;36.63;22.58;;;15.90;88.10;;;;;;4968571;28;20233;-58
2021/09/18 06:48:15;;;;;;;34.78;21.00;;;15.90;88.20;;;;;;4967994;28;20047;-58
2021/09/18 06:50:42;;;;;;;31.10;21.08;;;15.90;88.50;;;;;;4935743;28;20058;-59
2021/09/18 06:53:09;;;;;;;37.42;21.80;;;16.00;88.70;;;;;;4951106;28;20046;-59
2021/09/18 06:55:36;;;;;;;41.33;23.80;;;16.10;88.80;;;;;;4968423;28;20051;-59
2021/09/18 06:58:03;;;;;;;41.72;23.25;;;16.20;88.90;;;;;;4968410;28;20106;-59
2021/09/18 07:00:30;;;;;;;36.55;23.70;;;16.20;88.80;;;;;;4967732;28;20042;-59
2021/09/18 07:02:57;;;;;;;33.03;20.67;;;16.30;88.70;;;;;;4942782;28;20075;-59
2021/09/18 07:05:24;;;;;;;48.97;23.15;;;16.40;88.80;;;;;;4966463;28;20047;-60
2021/09/18 07:07:51;;;;;;;34.95;21.17;;;16.50;88.80;;;;;;4968728;28;20051;-58
2021/09/18 07:10:18;;;;;;;43.42;24.00;;;16.60;88.70;;;;;;4967826;28;20063;-58
2021/09/18 07:12:45;;;;;;;33.00;21.20;;;16.60;88.70;;;;;;4968409;28;20517;-58
2021/09/18 07:15:12;;;;;;;35.92;20.55;;;16.70;88.50;;;;;;4968217;28;20050;-57
2021/09/18 07:17:39;;;;;;;67.55;21.90;;;16.80;88.50;;;;;;4968304;28;20131;-58
2021/09/18 07:20:07;;;;;;;37.78;20.50;;;16.90;88.50;;;;;;4967860;28;20051;-56
2021/09/18 07:22:34;;;;;;;28.73;18.77;;;16.90;88.40;;;;;;4968192;28;20087;-57
2021/09/18 07:25:01;;;;;;;30.08;17.00;;;17.00;88.20;;;;;;4966960;28;20069;-57
2021/09/18 07:27:28;;;;;;;26.58;16.60;;;17.10;88.10;;;;;;4968076;28;20051;-58
2021/09/18 07:29:57;;;;;;;29.35;17.75;;;17.10;88.10;;;;;;4967874;28;20043;-57
2021/09/18 07:32:24;;;;;;;33.15;17.50;;;17.10;88.10;;;;;;4968053;28;20095;-58
2021/09/18 07:34:51;;;;;;;26.10;16.35;;;17.20;88.10;;;;;;4967378;28;20111;-59
2021/09/18 07:37:18;;;;;;;27.10;16.13;;;17.20;88.00;;;;;;4971453;28;20122;-57
2021/09/18 07:39:45;;;;;;;22.50;15.68;;;17.30;88.10;;;;;;4971024;28;20390;-58
2021/09/18 07:42:11;;;;;;;26.58;15.88;;;17.30;87.90;;;;;;4971678;28;20076;-59
2021/09/18 07:44:38;;;;;;;22.73;15.23;;;17.40;87.90;;;;;;4971247;28;20081;-59
2021/09/18 07:47:06;;;;;;;24.42;17.25;;;17.40;87.80;;;;;;4971032;28;20833;-59
2021/09/18 07:49:35;;;;;;;29.75;17.13;;;17.50;87.80;;;;;;4968794;28;20122;-59
2021/09/18 07:52:03;;;;;;;29.67;17.13;;;17.50;88.50;;;;;;4625040;28;9999866;-59
2021/09/18 07:54:33;;;;;;;25.25;15.48;;;17.60;87.70;;;;;;4954831;28;20055;-60
2021/09/18 07:57:21;;;;;;;23.45;14.80;;;17.60;87.60;;;;;;4952881;28;20228;-60
2021/09/18 07:59:47;;;;;;;20.85;15.40;;;17.60;87.50;;;;;;4950570;28;20054;-59
2021/09/18 08:02:17;;;;;;;18.85;13.85;;;17.70;87.50;;;;;;4966510;28;20145;-60
2021/09/18 08:04:45;;;;;;;18.55;12.38;;;17.70;87.60;;;;;;4968671;28;20335;-59
2021/09/18 08:07:21;;;;;;;16.63;11.90;;;17.80;87.30;;;;;;4967676;28;20054;-60
2021/09/18 08:09:49;;;;;;;17.90;11.35;;;17.90;87.30;;;;;;4968910;28;20043;-60
2021/09/18 08:12:18;;;;;;;14.77;9.48;;;17.90;87.10;;;;;;4966713;28;20061;-60
2021/09/18 08:14:51;;;;;;;13.38;9.85;;;17.90;86.90;;;;;;4966965;28;20051;-58
2021/09/18 08:17:21;;;;;;;13.77;9.43;;;18.00;86.80;;;;;;4965432;28;20050;-60
2021/09/18 08:19:48;;;;;;;11.90;8.45;;;18.10;86.40;;;;;;4949832;28;20088;-58
2021/09/18 08:22:15;;;;;;;11.25;8.13;;;18.10;86.30;;;;;;4961241;28;20748;-58
2021/09/18 08:24:42;;;;;;;10.02;7.10;;;18.10;86.00;;;;;;4968961;28;20205;-58
2021/09/18 08:27:09;;;;;;;10.85;7.35;;;18.20;85.60;;;;;;4968922;28;20055;-59
2021/09/18 08:29:36;;;;;;;9.43;6.45;;;18.30;85.50;;;;;;4979899;28;20710;-59
2021/09/18 08:32:03;;;;;;;9.45;6.90;;;18.40;85.40;;;;;;4957819;28;20201;-58
2021/09/18 08:34:30;;;;;;;11.00;6.18;;;18.50;85.30;;;;;;4989286;28;20047;-58
2021/09/18 08:36:57;;;;;;;10.13;6.43;;;18.60;84.90;;;;;;4989550;28;20046;-61
2021/09/18 08:39:24;;;;;;;15.75;5.65;;;18.70;85.00;;;;;;4983537;28;20116;-59
2021/09/18 08:41:51;;;;;;;10.18;5.85;;;18.70;83.90;;;;;;4988945;28;20058;-57
2021/09/18 08:44:18;;;;;;;12.82;5.88;;;18.80;83.90;;;;;;4988705;28;20417;-58
2021/09/18 08:46:44;;;;;;;7.85;4.68;;;19.00;83.30;;;;;;4981371;28;20468;-58
2021/09/18 08:49:11;;;;;;;9.48;4.93;;;19.10;82.70;;;;;;4980420;28;20051;-59
2021/09/18 08:51:40;;;;;;;9.60;5.07;;;19.10;82.10;;;;;;4987437;28;20077;-57
2021/09/18 08:54:07;;;;;;;10.90;4.53;;;19.20;81.40;;;;;;4968982;28;20046;-58
2021/09/18 08:56:34;;;;;;;11.30;4.10;;;19.20;80.90;;;;;;4988449;28;20050;-59
2021/09/18 08:59:01;;;;;;;6.95;4.55;;;19.20;80.30;;;;;;4988873;28;20063;-59
2021/09/18 09:01:29;;;;;;;7.30;4.60;;;19.30;80.20;;;;;;4987971;28;20464;-59
2021/09/18 09:03:57;;;;;;;7.55;4.15;;;19.30;79.60;;;;;;4986348;28;20073;-59
2021/09/18 09:06:26;;;;;;;9.10;3.90;;;19.40;79.80;;;;;;4970766;28;20050;-59
2021/09/18 09:08:57;;;;;;;6.53;3.25;;;19.60;79.10;;;;;;4971411;28;20046;-59
2021/09/18 09:11:27;;;;;;;3.85;3.05;;;19.80;77.20;;;;;;4968349;28;20054;-58
2021/09/18 09:13:56;;;;;;;5.07;3.03;;;19.90;76.40;;;;;;4966984;28;20042;-58
2021/09/18 09:16:23;;;;;;;4.82;2.47;;;19.90;77.00;;;;;;4981630;28;20128;-58
2021/09/18 09:18:50;;;;;;;8.35;3.05;;;19.90;77.00;;;;;;4985508;28;20149;-58
2021/09/18 09:21:28;;;;;;;13.88;3.47;;;20.10;76.50;;;;;;4984450;28;20054;-58
2021/09/18 09:24:12;;;;;;;6.85;3.20;;;20.40;75.30;;;;;;4981571;28;20047;-58
2021/09/18 09:26:40;;;;;;;5.43;3.63;;;20.70;73.40;;;;;;4967697;28;20054;-58
2021/09/18 09:29:07;;;;;;;5.20;2.72;;;21.00;74.80;;;;;;4987484;28;20074;-59
2021/09/18 09:31:35;;;;;;;5.53;3.28;;;21.20;73.90;;;;;;4987175;28;20054;-58
2021/09/18 09:34:02;;;;;;;8.43;2.60;;;21.30;73.20;;;;;;4984610;28;20050;-58
2021/09/18 09:36:37;;;;;;;3.90;2.60;;;21.50;72.90;;;;;;4969397;28;20124;-58
2021/09/18 09:39:05;;;;;;;8.82;2.97;;;21.60;72.50;;;;;;4987812;28;20054;-59
2021/09/18 09:41:48;;;;;;;6.85;2.78;;;21.50;72.00;;;;;;4983541;28;20157;-59
2021/09/18 09:44:18;;;;;;;16.90;3.60;;;21.40;72.30;;;;;;4982688;28;20128;-58
2021/09/18 09:47:04;;;;;;;8.30;2.80;;;21.30;72.20;;;;;;4979251;28;20054;-59
2021/09/18 09:49:43;;;;;;;5.82;2.35;;;21.20;68.50;;;;;;4979092;28;20154;-59
2021/09/18 09:52:21;;;;;;;5.78;1.98;;;21.20;69.60;;;;;;4967206;28;20497;-58
2021/09/18 09:54:48;;;;;;;4.68;2.00;;;21.10;69.60;;;;;;4987282;28;20057;-59
2021/09/18 09:57:15;;;;;;;5.32;2.45;;;21.20;71.40;;;;;;4970397;28;20046;-59
2021/09/18 09:59:42;;;;;;;5.45;2.63;;;21.10;71.30;;;;;;4987418;28;20042;-59
2021/09/18 10:02:10;;;;;;;3.97;2.85;;;21.20;71.20;;;;;;4987012;28;20042;-59
2021/09/18 10:04:37;;;;;;;6.22;2.63;;;21.10;71.30;;;;;;4987154;28;20879;-58
2021/09/18 10:07:04;;;;;;;4.80;2.40;;;21.20;70.90;;;;;;4987026;28;20137;-58
2021/09/18 10:09:31;;;;;;;4.55;2.35;;;21.20;70.30;;;;;;4986961;28;20113;-58
2021/09/18 10:11:58;;;;;;;2.58;2.13;;;21.20;70.60;;;;;;4969771;28;20042;-56
2021/09/18 10:14:26;;;;;;;4.18;2.42;;;21.10;69.80;;;;;;4987520;28;20086;-57
2021/09/18 10:16:56;;;;;;;8.10;2.65;;;21.20;69.40;;;;;;4986778;28;20043;-58
2021/09/18 10:25:36;;;;;;;6.82;2.55;;;21.20;68.00;;;;;;4951579;28;20129;-58
2021/09/18 10:28:23;;;;;;;3.78;2.95;;;21.20;65.20;;;;;;4956878;28;20081;-57
2021/09/18 10:31:01;;;;;;;5.40;2.63;;;21.20;67.80;;;;;;4967433;28;20077;-57
2021/09/18 10:33:40;;;;;;;3.55;2.55;;;21.30;66.50;;;;;;4950081;28;20587;-57
2021/09/18 10:36:17;;;;;;;2.90;2.20;;;21.20;67.30;;;;;;4967032;28;20129;-58
2021/09/18 10:39:02;;;;;;;6.60;3.08;;;21.20;65.30;;;;;;4967505;28;20534;-58
2021/09/18 10:41:38;;;;;;;6.72;3.15;;;21.30;66.80;;;;;;4949138;28;20098;-57
2021/09/18 10:44:05;;;;;;;6.10;2.53;;;21.30;67.40;;;;;;4958440;28;20046;-58
2021/09/18 10:46:49;;;;;;;5.80;3.45;;;21.40;67.40;;;;;;4961971;28;20113;-58
2021/09/18 10:49:32;;;;;;;7.82;3.67;;;21.40;64.50;;;;;;4954091;28;20075;-58
2021/09/18 10:52:17;;;;;;;6.25;3.13;;;21.50;64.70;;;;;;4956123;28;20105;-58
2021/09/18 10:55:02;;;;;;;5.80;2.97;;;21.50;64.10;;;;;;4952412;28;20439;-58
2021/09/18 10:57:38;;;;;;;6.80;3.03;;;21.60;63.10;;;;;;4951650;28;20055;-58
2021/09/18 11:00:12;;;;;;;4.53;3.13;;;21.60;63.90;;;;;;4960453;28;20059;-58
2021/09/18 11:02:44;;;;;;;4.32;2.50;;;21.80;66.00;;;;;;4960654;28;20167;-58
2021/09/18 11:05:42;;;;;;;7.88;2.40;;;21.90;66.00;;;;;;4967106;28;20046;-57
2021/09/18 11:08:14;;;;;;;6.70;2.75;;;21.90;62.90;;;;;;4953757;28;20038;-58
2021/09/18 11:10:44;;;;;;;7.53;2.65;;;22.00;64.10;;;;;;4978161;28;20638;-58
2021/09/18 11:13:11;;;;;;;5.95;3.20;;;22.10;65.10;;;;;;4963777;28;20107;-60
2021/09/18 11:15:39;;;;;;;6.70;2.92;;;22.10;65.60;;;;;;4967167;28;20101;-58
2021/09/18 11:18:08;;;;;;;7.80;2.95;;;22.20;65.40;;;;;;4969651;28;20114;-58
2021/09/18 11:20:35;;;;;;;6.82;2.70;;;22.20;63.80;;;;;;4979410;28;20181;-59
2021/09/18 11:23:02;;;;;;;11.00;2.70;;;22.20;64.70;;;;;;4973502;28;20134;-58
2021/09/18 11:25:33;;;;;;;8.88;3.13;;;22.20;64.70;;;;;;4968472;28;20102;-59
2021/09/18 11:28:05;;;;;;;8.80;3.17;;;22.20;63.30;;;;;;4970798;28;20429;-59
2021/09/18 11:30:49;;;;;;;12.82;3.63;;;22.30;64.30;;;;;;4958308;28;20097;-60
2021/09/18 11:33:18;;;;;;;8.35;3.67;;;22.30;61.80;;;;;;4963214;28;20514;-60
2021/09/18 11:35:55;;;;;;;5.88;2.28;;;22.40;63.60;;;;;;4960646;28;20047;-59
2021/09/18 11:38:24;;;;;;;8.77;2.65;;;22.50;62.10;;;;;;4963535;28;20069;-60
2021/09/18 11:40:51;;;;;;;4.22;2.70;;;22.60;63.20;;;;;;4955879;28;20502;-59
2021/09/18 11:43:26;;;;;;;9.13;3.35;;;22.70;63.10;;;;;;4952851;28;20054;-59
2021/09/18 11:45:52;;;;;;;8.43;2.55;;;22.70;61.10;;;;;;4965623;28;20074;-59
2021/09/18 11:48:22;;;;;;;6.47;2.60;;;22.70;62.30;;;;;;4965143;28;20061;-60
2021/09/18 11:50:49;;;;;;;4.53;2.40;;;22.80;62.50;;;;;;4957262;28;20051;-58
2021/09/18 11:53:16;;;;;;;6.47;2.35;;;22.80;62.30;;;;;;4965110;28;20561;-58
2021/09/18 11:55:47;;;;;;;5.57;2.20;;;22.70;62.10;;;;;;4953977;28;20078;-58
2021/09/18 11:58:15;;;;;;;4.80;2.50;;;22.70;61.70;;;;;;4967171;28;20466;-59
2021/09/18 12:00:44;;;;;;;12.27;2.20;;;22.60;61.80;;;;;;4946591;28;20089;-59
2021/09/18 12:03:11;;;;;;;5.90;2.33;;;22.50;61.70;;;;;;4967962;28;20054;-59
2021/09/18 12:05:38;;;;;;;3.78;2.20;;;22.50;61.90;;;;;;4934406;28;20161;-58
2021/09/18 12:08:07;;;;;;;7.97;2.10;;;22.50;61.80;;;;;;4967862;28;20564;-59
2021/09/18 12:10:34;;;;;;;1.98;1.60;;;22.50;62.20;;;;;;4962291;28;20061;-59
2021/09/18 12:13:02;;;;;;;9.13;2.25;;;22.60;62.20;;;;;;4948269;29;21608;-58
2021/09/18 12:15:38;;;;;;;4.93;3.05;;;22.70;62.50;;;;;;4961633;28;20555;-58
2021/09/18 12:18:07;;;;;;;2.38;1.77;;;22.80;60.20;;;;;;4949357;28;20051;-58
2021/09/18 12:20:36;;;;;;;2.95;1.98;;;22.80;61.70;;;;;;4963258;28;20054;-59
2021/09/18 12:23:04;;;;;;;5.13;2.47;;;22.80;61.40;;;;;;4952489;28;20047;-58
2021/09/18 12:25:32;;;;;;;3.85;2.15;;;22.90;61.60;;;;;;4932711;28;20042;-59
2021/09/18 12:28:01;;;;;;;2.65;2.10;;;23.00;61.50;;;;;;4970403;28;20051;-59
2021/09/18 12:30:38;;;;;;;5.85;2.42;;;23.00;61.20;;;;;;4967053;28;20047;-58
2021/09/18 12:33:15;;;;;;;3.75;2.05;;;23.00;59.70;;;;;;4970527;28;20466;-59
2021/09/18 12:35:44;;;;;;;3.47;2.08;;;23.10;61.00;;;;;;4966836;28;20047;-58
2021/09/18 12:38:11;;;;;;;5.30;2.10;;;23.10;60.90;;;;;;4953348;28;20457;-59
2021/09/18 12:40:50;;;;;;;10.13;2.20;;;23.10;60.40;;;;;;4952907;28;20047;-59
2021/09/18 12:43:18;;;;;;;2.83;1.90;;;23.20;60.10;;;;;;4965030;28;20046;-59
2021/09/18 12:45:46;;;;;;;6.32;2.00;;;23.10;60.10;;;;;;4973578;28;20049;-59